sensor_id;sensor_type;location;lat;lon;timestamp;temperature;humidity
7800;DHT22;3944;47.984;7.960;2022-07-01T00:02:20;15.30;99.90
7800;DHT22;3944;47.984;7.960;2022-07-01T00:04:48;15.30;99.90
7800;DHT22;3944;47.984;7.960;2022-07-01T00:07:16;15.40;99.90
7800;DHT22;3944;47.984;7.960;2022-07-01T00:09:43;15.20;99.90
7800;DHT22;3944;47.984;7.960;2022-07-01T00:12:10;15.30;99.90
7800;DHT22;3944;47.984;7.960;2022-07-01T00:14:38;15.30;99.90
7800;DHT22;3944;47.984;7.960;2022-07-01T00:17:05;15.40;99.90
7800;DHT22;3944;47.984;7.960;2022-07-01T00:19:32;15.40;99.90
7800;DHT22;3944;47.984;7.960;2022-07-01T00:21:59;15.40;99.90
7800;DHT22;3944;47.984;7.960;2022-07-01T00:24:27;15.40;99.90
7800;DHT22;3944;47.984;7.960;2022-07-01T00:26:54;15.30;99.90
7800;DHT22;3944;47.984;7.960;2022-07-01T00:29:21;15.30;99.90
7800;DHT22;3944;47.984;7.960;2022-07-01T00:31:48;15.30;99.90
7800;DHT22;3944;47.984;7.960;2022-07-01T00:34:15;15.30;99.90
7800;DHT22;3944;47.984;7.960;2022-07-01T00:36:42;15.30;99.90
7800;DHT22;3944;47.984;7.960;2022-07-01T00:39:09;15.30;99.90
7800;DHT22;3944;47.984;7.960;2022-07-01T00:41:37;15.40;99.90
7800;DHT22;3944;47.984;7.960;2022-07-01T00:44:04;15.40;99.90
7800;DHT22;3944;47.984;7.960;2022-07-01T00:46:32;15.40;99.90
7800;DHT22;3944;47.984;7.960;2022-07-01T00:48:59;15.50;99.90
7800;DHT22;3944;47.984;7.960;2022-07-01T00:51:28;15.50;99.90
7800;DHT22;3944;47.984;7.960;2022-07-01T00:53:55;15.40;99.90
7800;DHT22;3944;47.984;7.960;2022-07-01T00:56:23;15.40;99.90
7800;DHT22;3944;47.984;7.960;2022-07-01T00:58:52;15.30;99.90
7800;DHT22;3944;47.984;7.960;2022-07-01T01:01:19;15.20;99.90
7800;DHT22;3944;47.984;7.960;2022-07-01T01:03:48;15.20;99.90
7800;DHT22;3944;47.984;7.960;2022-07-01T01:06:16;15.20;99.90
7800;DHT22;3944;47.984;7.960;2022-07-01T01:08:43;15.20;99.90
7800;DHT22;3944;47.984;7.960;2022-07-01T01:11:11;15.20;99.90
7800;DHT22;3944;47.984;7.960;2022-07-01T01:13:39;15.00;99.90
7800;DHT22;3944;47.984;7.960;2022-07-01T01:16:07;15.20;99.90
7800;DHT22;3944;47.984;7.960;2022-07-01T01:18:34;15.10;99.90
7800;DHT22;3944;47.984;7.960;2022-07-01T01:21:03;15.10;99.90
7800;DHT22;3944;47.984;7.960;2022-07-01T01:23:30;15.20;99.90
7800;DHT22;3944;47.984;7.960;2022-07-01T01:25:57;15.10;99.90
7800;DHT22;3944;47.984;7.960;2022-07-01T01:28:24;14.90;99.90
7800;DHT22;3944;47.984;7.960;2022-07-01T01:30:51;15.00;99.90
7800;DHT22;3944;47.984;7.960;2022-07-01T01:33:18;14.90;99.90
7800;DHT22;3944;47.984;7.960;2022-07-01T01:35:45;14.80;99.90
7800;DHT22;3944;47.984;7.960;2022-07-01T01:38:14;14.80;99.90
7800;DHT22;3944;47.984;7.960;2022-07-01T01:40:44;14.70;99.90
7800;DHT22;3944;47.984;7.960;2022-07-01T01:43:11;14.60;99.90
7800;DHT22;3944;47.984;7.960;2022-07-01T01:45:38;14.60;99.90
7800;DHT22;3944;47.984;7.960;2022-07-01T01:48:06;14.70;99.90
7800;DHT22;3944;47.984;7.960;2022-07-01T01:50:33;14.80;99.90
7800;DHT22;3944;47.984;7.960;2022-07-01T01:53:00;14.60;99.90
7800;DHT22;3944;47.984;7.960;2022-07-01T01:55:28;14.70;99.90
7800;DHT22;3944;47.984;7.960;2022-07-01T01:57:56;14.60;99.90
7800;DHT22;3944;47.984;7.960;2022-07-01T02:00:23;14.40;99.90
7800;DHT22;3944;47.984;7.960;2022-07-01T02:02:50;14.50;99.90
7800;DHT22;3944;47.984;7.960;2022-07-01T02:05:17;14.50;99.90
7800;DHT22;3944;47.984;7.960;2022-07-01T02:07:45;14.50;99.90
7800;DHT22;3944;47.984;7.960;2022-07-01T02:10:11;14.50;99.90
7800;DHT22;3944;47.984;7.960;2022-07-01T02:12:40;14.50;99.90
7800;DHT22;3944;47.984;7.960;2022-07-01T02:15:07;14.50;99.90
7800;DHT22;3944;47.984;7.960;2022-07-01T02:17:34;14.60;99.90
7800;DHT22;3944;47.984;7.960;2022-07-01T02:20:02;14.50;99.90
7800;DHT22;3944;47.984;7.960;2022-07-01T02:22:29;14.40;99.90
7800;DHT22;3944;47.984;7.960;2022-07-01T02:24:56;14.60;99.90
7800;DHT22;3944;47.984;7.960;2022-07-01T02:27:23;14.60;99.90
7800;DHT22;3944;47.984;7.960;2022-07-01T02:29:52;14.60;99.90
7800;DHT22;3944;47.984;7.960;2022-07-01T02:32:19;14.50;99.90
7800;DHT22;3944;47.984;7.960;2022-07-01T02:34:46;14.40;99.90
7800;DHT22;3944;47.984;7.960;2022-07-01T02:37:13;14.40;99.90
7800;DHT22;3944;47.984;7.960;2022-07-01T02:39:40;14.40;99.90
7800;DHT22;3944;47.984;7.960;2022-07-01T02:42:07;14.50;99.90
7800;DHT22;3944;47.984;7.960;2022-07-01T02:44:53;14.40;99.90
7800;DHT22;3944;47.984;7.960;2022-07-01T02:47:20;14.40;99.90
7800;DHT22;3944;47.984;7.960;2022-07-01T02:49:47;14.40;99.90
7800;DHT22;3944;47.984;7.960;2022-07-01T02:52:15;14.40;99.90
7800;DHT22;3944;47.984;7.960;2022-07-01T02:54:42;14.40;99.90
7800;DHT22;3944;47.984;7.960;2022-07-01T02:57:09;14.50;99.90
7800;DHT22;3944;47.984;7.960;2022-07-01T02:59:36;14.50;99.90
7800;DHT22;3944;47.984;7.960;2022-07-01T03:02:05;14.50;99.90
7800;DHT22;3944;47.984;7.960;2022-07-01T03:04:32;14.50;99.90
7800;DHT22;3944;47.984;7.960;2022-07-01T03:06:59;14.50;99.90
7800;DHT22;3944;47.984;7.960;2022-07-01T03:09:26;14.50;99.90
7800;DHT22;3944;47.984;7.960;2022-07-01T03:11:53;14.50;99.90
7800;DHT22;3944;47.984;7.960;2022-07-01T03:14:20;14.40;99.90
7800;DHT22;3944;47.984;7.960;2022-07-01T03:16:47;14.30;99.90
7800;DHT22;3944;47.984;7.960;2022-07-01T03:19:16;14.30;99.90
7800;DHT22;3944;47.984;7.960;2022-07-01T03:21:43;14.30;99.90
7800;DHT22;3944;47.984;7.960;2022-07-01T03:24:10;14.20;99.90
7800;DHT22;3944;47.984;7.960;2022-07-01T03:26:37;14.30;99.90
7800;DHT22;3944;47.984;7.960;2022-07-01T03:29:04;14.20;99.90
7800;DHT22;3944;47.984;7.960;2022-07-01T03:31:31;14.40;99.90
7800;DHT22;3944;47.984;7.960;2022-07-01T03:33:58;14.40;99.90
7800;DHT22;3944;47.984;7.960;2022-07-01T03:36:26;14.40;99.90
7800;DHT22;3944;47.984;7.960;2022-07-01T03:38:53;14.20;99.90
7800;DHT22;3944;47.984;7.960;2022-07-01T03:41:20;14.30;99.90
7800;DHT22;3944;47.984;7.960;2022-07-01T03:43:47;14.20;99.90
7800;DHT22;3944;47.984;7.960;2022-07-01T03:46:14;14.20;99.90
7800;DHT22;3944;47.984;7.960;2022-07-01T03:48:41;14.30;99.90
7800;DHT22;3944;47.984;7.960;2022-07-01T03:51:09;14.30;99.90
7800;DHT22;3944;47.984;7.960;2022-07-01T03:53:37;14.30;99.90
7800;DHT22;3944;47.984;7.960;2022-07-01T03:56:21;14.30;99.90
7800;DHT22;3944;47.984;7.960;2022-07-01T03:58:48;14.40;99.90
7800;DHT22;3944;47.984;7.960;2022-07-01T04:01:15;14.40;99.90
7800;DHT22;3944;47.984;7.960;2022-07-01T04:03:42;14.40;99.90
7800;DHT22;3944;47.984;7.960;2022-07-01T04:06:09;14.40;99.90
7800;DHT22;3944;47.984;7.960;2022-07-01T04:08:38;14.30;99.90
7800;DHT22;3944;47.984;7.960;2022-07-01T04:11:05;14.40;99.90
7800;DHT22;3944;47.984;7.960;2022-07-01T04:13:34;14.30;99.90
7800;DHT22;3944;47.984;7.960;2022-07-01T04:16:02;14.40;99.90
7800;DHT22;3944;47.984;7.960;2022-07-01T04:18:30;14.40;99.90
7800;DHT22;3944;47.984;7.960;2022-07-01T04:20:57;14.40;99.90
7800;DHT22;3944;47.984;7.960;2022-07-01T04:23:43;14.40;99.90
7800;DHT22;3944;47.984;7.960;2022-07-01T04:26:10;14.30;99.90
7800;DHT22;3944;47.984;7.960;2022-07-01T04:28:37;14.40;99.90
7800;DHT22;3944;47.984;7.960;2022-07-01T04:31:04;14.40;99.90
7800;DHT22;3944;47.984;7.960;2022-07-01T04:33:31;14.50;99.90
7800;DHT22;3944;47.984;7.960;2022-07-01T04:35:58;14.40;99.90
7800;DHT22;3944;47.984;7.960;2022-07-01T04:38:25;14.30;99.90
7800;DHT22;3944;47.984;7.960;2022-07-01T04:40:54;14.10;99.90
7800;DHT22;3944;47.984;7.960;2022-07-01T04:43:38;13.90;99.90
7800;DHT22;3944;47.984;7.960;2022-07-01T04:46:06;13.90;99.90
7800;DHT22;3944;47.984;7.960;2022-07-01T04:48:33;13.80;99.90
7800;DHT22;3944;47.984;7.960;2022-07-01T04:51:00;13.80;99.90
7800;DHT22;3944;47.984;7.960;2022-07-01T04:53:26;13.90;99.90
7800;DHT22;3944;47.984;7.960;2022-07-01T04:55:55;14.10;99.90
7800;DHT22;3944;47.984;7.960;2022-07-01T04:58:22;14.30;99.90
7800;DHT22;3944;47.984;7.960;2022-07-01T05:00:49;14.40;99.90
7800;DHT22;3944;47.984;7.960;2022-07-01T05:03:16;14.40;99.90
7800;DHT22;3944;47.984;7.960;2022-07-01T05:05:43;14.40;99.90
7800;DHT22;3944;47.984;7.960;2022-07-01T05:08:10;14.50;99.90
7800;DHT22;3944;47.984;7.960;2022-07-01T05:10:37;14.50;99.90
7800;DHT22;3944;47.984;7.960;2022-07-01T05:13:05;14.40;99.90
7800;DHT22;3944;47.984;7.960;2022-07-01T05:15:33;14.50;99.90
7800;DHT22;3944;47.984;7.960;2022-07-01T05:17:59;14.60;99.90
7800;DHT22;3944;47.984;7.960;2022-07-01T05:20:44;14.40;99.90
7800;DHT22;3944;47.984;7.960;2022-07-01T05:23:28;14.50;99.90
7800;DHT22;3944;47.984;7.960;2022-07-01T05:25:55;14.40;99.90
7800;DHT22;3944;47.984;7.960;2022-07-01T05:28:23;14.40;99.90
7800;DHT22;3944;47.984;7.960;2022-07-01T05:30:50;14.40;99.90
7800;DHT22;3944;47.984;7.960;2022-07-01T05:33:18;14.40;99.90
7800;DHT22;3944;47.984;7.960;2022-07-01T05:35:46;14.20;99.90
7800;DHT22;3944;47.984;7.960;2022-07-01T05:38:13;14.20;99.90
7800;DHT22;3944;47.984;7.960;2022-07-01T05:40:40;14.20;99.90
7800;DHT22;3944;47.984;7.960;2022-07-01T05:43:07;14.20;99.90
7800;DHT22;3944;47.984;7.960;2022-07-01T05:45:36;14.20;99.90
7800;DHT22;3944;47.984;7.960;2022-07-01T05:48:03;14.20;99.90
7800;DHT22;3944;47.984;7.960;2022-07-01T05:50:30;14.20;99.90
7800;DHT22;3944;47.984;7.960;2022-07-01T05:52:57;14.20;99.90
7800;DHT22;3944;47.984;7.960;2022-07-01T05:55:24;14.00;99.90
7800;DHT22;3944;47.984;7.960;2022-07-01T05:57:51;13.80;99.90
7800;DHT22;3944;47.984;7.960;2022-07-01T06:00:18;13.80;99.90
7800;DHT22;3944;47.984;7.960;2022-07-01T06:02:47;13.90;99.90
7800;DHT22;3944;47.984;7.960;2022-07-01T06:05:14;13.90;99.90
7800;DHT22;3944;47.984;7.960;2022-07-01T06:07:41;13.90;99.90
7800;DHT22;3944;47.984;7.960;2022-07-01T06:10:09;13.90;99.90
7800;DHT22;3944;47.984;7.960;2022-07-01T06:12:36;14.00;99.90
7800;DHT22;3944;47.984;7.960;2022-07-01T06:15:04;14.00;99.90
7800;DHT22;3944;47.984;7.960;2022-07-01T06:17:33;14.10;99.90
7800;DHT22;3944;47.984;7.960;2022-07-01T06:20:02;14.00;99.90
7800;DHT22;3944;47.984;7.960;2022-07-01T06:22:29;14.10;99.90
7800;DHT22;3944;47.984;7.960;2022-07-01T06:24:56;14.10;99.90
7800;DHT22;3944;47.984;7.960;2022-07-01T06:27:23;14.00;99.90
7800;DHT22;3944;47.984;7.960;2022-07-01T06:29:50;14.00;99.90
7800;DHT22;3944;47.984;7.960;2022-07-01T06:32:18;14.00;99.90
7800;DHT22;3944;47.984;7.960;2022-07-01T06:34:45;13.90;99.90
7800;DHT22;3944;47.984;7.960;2022-07-01T06:37:13;13.80;99.90
7800;DHT22;3944;47.984;7.960;2022-07-01T06:39:40;13.80;99.90
7800;DHT22;3944;47.984;7.960;2022-07-01T06:42:08;13.80;99.90
7800;DHT22;3944;47.984;7.960;2022-07-01T06:44:35;13.60;99.90
7800;DHT22;3944;47.984;7.960;2022-07-01T06:47:02;13.50;99.90
7800;DHT22;3944;47.984;7.960;2022-07-01T06:49:29;13.60;99.90
7800;DHT22;3944;47.984;7.960;2022-07-01T06:51:56;13.50;99.90
7800;DHT22;3944;47.984;7.960;2022-07-01T06:54:24;13.50;99.90
7800;DHT22;3944;47.984;7.960;2022-07-01T06:56:51;13.50;99.90
7800;DHT22;3944;47.984;7.960;2022-07-01T06:59:18;13.60;99.90
7800;DHT22;3944;47.984;7.960;2022-07-01T07:01:45;13.70;99.90
7800;DHT22;3944;47.984;7.960;2022-07-01T07:04:12;13.80;99.90
7800;DHT22;3944;47.984;7.960;2022-07-01T07:06:39;13.80;99.90
7800;DHT22;3944;47.984;7.960;2022-07-01T07:09:06;13.80;99.90
7800;DHT22;3944;47.984;7.960;2022-07-01T07:11:35;13.80;99.90
7800;DHT22;3944;47.984;7.960;2022-07-01T07:14:02;13.80;99.90
7800;DHT22;3944;47.984;7.960;2022-07-01T07:16:29;13.90;99.90
7800;DHT22;3944;47.984;7.960;2022-07-01T07:18:56;13.70;99.90
7800;DHT22;3944;47.984;7.960;2022-07-01T07:21:23;13.80;99.90
7800;DHT22;3944;47.984;7.960;2022-07-01T07:23:50;13.80;99.90
7800;DHT22;3944;47.984;7.960;2022-07-01T07:26:17;13.80;99.90
7800;DHT22;3944;47.984;7.960;2022-07-01T07:28:46;13.90;99.90
7800;DHT22;3944;47.984;7.960;2022-07-01T07:31:13;13.90;99.90
7800;DHT22;3944;47.984;7.960;2022-07-01T07:33:39;14.00;99.90
7800;DHT22;3944;47.984;7.960;2022-07-01T07:36:07;13.90;99.90
7800;DHT22;3944;47.984;7.960;2022-07-01T07:38:36;13.90;99.90
7800;DHT22;3944;47.984;7.960;2022-07-01T07:41:03;14.00;99.90
7800;DHT22;3944;47.984;7.960;2022-07-01T07:43:30;14.10;99.90
7800;DHT22;3944;47.984;7.960;2022-07-01T07:45:59;14.20;99.90
7800;DHT22;3944;47.984;7.960;2022-07-01T07:48:26;14.10;99.90
7800;DHT22;3944;47.984;7.960;2022-07-01T07:50:53;14.20;99.90
7800;DHT22;3944;47.984;7.960;2022-07-01T07:53:20;14.30;99.90
7800;DHT22;3944;47.984;7.960;2022-07-01T07:55:47;14.20;99.90
7800;DHT22;3944;47.984;7.960;2022-07-01T07:58:14;14.10;99.90
7800;DHT22;3944;47.984;7.960;2022-07-01T08:00:41;14.10;99.90
7800;DHT22;3944;47.984;7.960;2022-07-01T08:03:09;14.10;99.90
7800;DHT22;3944;47.984;7.960;2022-07-01T08:05:36;14.10;99.90
7800;DHT22;3944;47.984;7.960;2022-07-01T08:08:03;14.20;99.90
7800;DHT22;3944;47.984;7.960;2022-07-01T08:10:31;14.30;99.90
7800;DHT22;3944;47.984;7.960;2022-07-01T08:12:57;14.30;99.90
7800;DHT22;3944;47.984;7.960;2022-07-01T08:15:29;14.40;99.90
7800;DHT22;3944;47.984;7.960;2022-07-01T08:17:56;14.50;99.90
7800;DHT22;3944;47.984;7.960;2022-07-01T08:20:25;14.70;99.90
7800;DHT22;3944;47.984;7.960;2022-07-01T08:22:52;14.70;99.90
7800;DHT22;3944;47.984;7.960;2022-07-01T08:25:19;14.70;99.90
7800;DHT22;3944;47.984;7.960;2022-07-01T08:27:46;14.90;99.90
7800;DHT22;3944;47.984;7.960;2022-07-01T08:30:13;14.90;99.90
7800;DHT22;3944;47.984;7.960;2022-07-01T08:32:40;15.00;99.90
7800;DHT22;3944;47.984;7.960;2022-07-01T08:35:07;15.00;99.90
7800;DHT22;3944;47.984;7.960;2022-07-01T08:37:36;15.00;99.90
7800;DHT22;3944;47.984;7.960;2022-07-01T08:40:03;15.10;99.90
7800;DHT22;3944;47.984;7.960;2022-07-01T08:42:31;15.00;99.90
7800;DHT22;3944;47.984;7.960;2022-07-01T08:44:57;15.10;99.90
7800;DHT22;3944;47.984;7.960;2022-07-01T08:47:24;15.10;99.90
7800;DHT22;3944;47.984;7.960;2022-07-01T08:49:51;15.20;99.90
7800;DHT22;3944;47.984;7.960;2022-07-01T08:52:19;15.30;99.90
7800;DHT22;3944;47.984;7.960;2022-07-01T08:54:48;15.30;99.90
7800;DHT22;3944;47.984;7.960;2022-07-01T08:57:20;15.30;99.90
7800;DHT22;3944;47.984;7.960;2022-07-01T09:00:00;15.60;99.90
7800;DHT22;3944;47.984;7.960;2022-07-01T09:02:53;15.80;99.90
7800;DHT22;3944;47.984;7.960;2022-07-01T09:05:21;16.00;99.90
7800;DHT22;3944;47.984;7.960;2022-07-01T09:07:49;16.30;99.90
7800;DHT22;3944;47.984;7.960;2022-07-01T09:10:23;16.50;99.90
7800;DHT22;3944;47.984;7.960;2022-07-01T09:12:50;16.60;99.90
7800;DHT22;3944;47.984;7.960;2022-07-01T09:15:23;16.60;99.90
7800;DHT22;3944;47.984;7.960;2022-07-01T09:17:54;16.50;99.90
7800;DHT22;3944;47.984;7.960;2022-07-01T09:20:26;16.30;99.90
7800;DHT22;3944;47.984;7.960;2022-07-01T09:23:05;16.40;99.90
7800;DHT22;3944;47.984;7.960;2022-07-01T09:25:36;16.20;99.90
7800;DHT22;3944;47.984;7.960;2022-07-01T09:28:07;16.00;99.90
7800;DHT22;3944;47.984;7.960;2022-07-01T09:30:34;16.10;99.90
7800;DHT22;3944;47.984;7.960;2022-07-01T09:33:06;16.30;99.90
7800;DHT22;3944;47.984;7.960;2022-07-01T09:35:34;16.50;99.90
7800;DHT22;3944;47.984;7.960;2022-07-01T09:38:01;16.50;99.90
7800;DHT22;3944;47.984;7.960;2022-07-01T09:40:49;16.70;99.90
7800;DHT22;3944;47.984;7.960;2022-07-01T09:43:18;16.80;99.90
7800;DHT22;3944;47.984;7.960;2022-07-01T09:45:50;16.60;99.90
7800;DHT22;3944;47.984;7.960;2022-07-01T09:48:17;16.70;99.90
7800;DHT22;3944;47.984;7.960;2022-07-01T09:50:45;16.70;99.90
7800;DHT22;3944;47.984;7.960;2022-07-01T09:53:12;16.70;99.90
7800;DHT22;3944;47.984;7.960;2022-07-01T09:55:40;16.70;99.90
7800;DHT22;3944;47.984;7.960;2022-07-01T09:58:09;16.60;99.90
7800;DHT22;3944;47.984;7.960;2022-07-01T10:00:37;16.70;99.90
7800;DHT22;3944;47.984;7.960;2022-07-01T10:03:05;16.80;99.90
7800;DHT22;3944;47.984;7.960;2022-07-01T10:05:38;16.90;99.90
7800;DHT22;3944;47.984;7.960;2022-07-01T10:08:25;16.70;99.90
7800;DHT22;3944;47.984;7.960;2022-07-01T10:11:06;16.90;99.90
7800;DHT22;3944;47.984;7.960;2022-07-01T10:13:39;16.90;99.90
7800;DHT22;3944;47.984;7.960;2022-07-01T10:16:08;17.00;99.90
7800;DHT22;3944;47.984;7.960;2022-07-01T10:18:35;17.20;99.90
7800;DHT22;3944;47.984;7.960;2022-07-01T10:21:02;17.00;99.90
7800;DHT22;3944;47.984;7.960;2022-07-01T10:23:38;16.80;99.90
7800;DHT22;3944;47.984;7.960;2022-07-01T10:26:07;16.90;99.90
7800;DHT22;3944;47.984;7.960;2022-07-01T10:28:44;16.70;99.90
7800;DHT22;3944;47.984;7.960;2022-07-01T10:31:14;16.70;99.90
7800;DHT22;3944;47.984;7.960;2022-07-01T10:33:44;16.80;99.90
7800;DHT22;3944;47.984;7.960;2022-07-01T10:36:24;16.90;99.90
7800;DHT22;3944;47.984;7.960;2022-07-01T10:39:15;16.80;99.90
7800;DHT22;3944;47.984;7.960;2022-07-01T10:42:02;17.00;99.90
7800;DHT22;3944;47.984;7.960;2022-07-01T10:44:32;17.10;99.90
7800;DHT22;3944;47.984;7.960;2022-07-01T10:47:04;17.10;99.90
7800;DHT22;3944;47.984;7.960;2022-07-01T10:49:52;17.10;99.90
7800;DHT22;3944;47.984;7.960;2022-07-01T10:52:20;17.10;99.90
7800;DHT22;3944;47.984;7.960;2022-07-01T10:54:50;17.00;99.90
7800;DHT22;3944;47.984;7.960;2022-07-01T10:57:27;17.00;99.90
7800;DHT22;3944;47.984;7.960;2022-07-01T11:03:11;17.00;99.90
7800;DHT22;3944;47.984;7.960;2022-07-01T11:05:40;17.10;99.90
7800;DHT22;3944;47.984;7.960;2022-07-01T11:08:08;17.10;99.90
7800;DHT22;3944;47.984;7.960;2022-07-01T11:10:37;17.00;99.90
7800;DHT22;3944;47.984;7.960;2022-07-01T11:13:05;17.00;99.90
7800;DHT22;3944;47.984;7.960;2022-07-01T11:15:34;17.10;99.90
7800;DHT22;3944;47.984;7.960;2022-07-01T11:18:02;17.20;99.90
7800;DHT22;3944;47.984;7.960;2022-07-01T11:20:30;17.30;99.90
7800;DHT22;3944;47.984;7.960;2022-07-01T11:22:58;17.40;99.90
7800;DHT22;3944;47.984;7.960;2022-07-01T11:25:25;17.60;99.90
7800;DHT22;3944;47.984;7.960;2022-07-01T11:27:53;17.60;99.90
7800;DHT22;3944;47.984;7.960;2022-07-01T11:30:21;17.80;99.90
7800;DHT22;3944;47.984;7.960;2022-07-01T11:32:51;18.00;99.90
7800;DHT22;3944;47.984;7.960;2022-07-01T11:35:20;17.70;99.90
7800;DHT22;3944;47.984;7.960;2022-07-01T11:38:07;17.60;99.90
7800;DHT22;3944;47.984;7.960;2022-07-01T11:40:52;17.50;99.90
7800;DHT22;3944;47.984;7.960;2022-07-01T11:43:23;17.50;99.90
7800;DHT22;3944;47.984;7.960;2022-07-01T11:45:51;17.60;99.90
7800;DHT22;3944;47.984;7.960;2022-07-01T11:48:39;17.80;99.90
7800;DHT22;3944;47.984;7.960;2022-07-01T11:51:09;17.90;99.90
7800;DHT22;3944;47.984;7.960;2022-07-01T11:53:39;18.00;99.90
7800;DHT22;3944;47.984;7.960;2022-07-01T11:56:06;18.10;99.90
7800;DHT22;3944;47.984;7.960;2022-07-01T11:58:47;18.30;99.90
7800;DHT22;3944;47.984;7.960;2022-07-01T12:01:23;18.20;99.90
7800;DHT22;3944;47.984;7.960;2022-07-01T12:03:52;18.30;99.90
7800;DHT22;3944;47.984;7.960;2022-07-01T12:06:20;18.30;99.90
7800;DHT22;3944;47.984;7.960;2022-07-01T12:08:49;18.40;99.90
7800;DHT22;3944;47.984;7.960;2022-07-01T12:11:17;18.30;99.90
7800;DHT22;3944;47.984;7.960;2022-07-01T12:13:45;18.30;99.90
7800;DHT22;3944;47.984;7.960;2022-07-01T12:16:13;18.40;99.90
7800;DHT22;3944;47.984;7.960;2022-07-01T12:18:52;18.40;99.90
7800;DHT22;3944;47.984;7.960;2022-07-01T12:21:20;18.40;99.90
7800;DHT22;3944;47.984;7.960;2022-07-01T12:24:09;18.30;99.90
7800;DHT22;3944;47.984;7.960;2022-07-01T12:27:01;18.30;99.90
7800;DHT22;3944;47.984;7.960;2022-07-01T12:29:31;18.40;99.90
7800;DHT22;3944;47.984;7.960;2022-07-01T12:32:00;18.50;99.90
7800;DHT22;3944;47.984;7.960;2022-07-01T12:34:39;18.50;99.90
7800;DHT22;3944;47.984;7.960;2022-07-01T12:37:13;18.50;99.90
7800;DHT22;3944;47.984;7.960;2022-07-01T12:39:45;18.50;99.90
7800;DHT22;3944;47.984;7.960;2022-07-01T12:42:23;18.50;99.90
7800;DHT22;3944;47.984;7.960;2022-07-01T12:44:50;18.60;99.90
7800;DHT22;3944;47.984;7.960;2022-07-01T12:47:19;18.60;99.90
7800;DHT22;3944;47.984;7.960;2022-07-01T12:49:47;18.60;99.90
7800;DHT22;3944;47.984;7.960;2022-07-01T12:52:24;18.60;99.90
7800;DHT22;3944;47.984;7.960;2022-07-01T12:54:52;18.70;99.90
7800;DHT22;3944;47.984;7.960;2022-07-01T12:57:29;18.70;99.90
7800;DHT22;3944;47.984;7.960;2022-07-01T12:59:57;18.70;99.90
7800;DHT22;3944;47.984;7.960;2022-07-01T13:02:24;18.80;99.90
7800;DHT22;3944;47.984;7.960;2022-07-01T13:04:53;19.00;99.90
7800;DHT22;3944;47.984;7.960;2022-07-01T13:07:20;19.20;99.90
7800;DHT22;3944;47.984;7.960;2022-07-01T13:09:49;19.20;99.90
7800;DHT22;3944;47.984;7.960;2022-07-01T13:12:16;19.30;99.90
7800;DHT22;3944;47.984;7.960;2022-07-01T13:14:44;19.40;99.90
7800;DHT22;3944;47.984;7.960;2022-07-01T13:17:10;19.40;99.90
7800;DHT22;3944;47.984;7.960;2022-07-01T13:19:37;19.40;99.90
7800;DHT22;3944;47.984;7.960;2022-07-01T13:22:06;19.40;99.90
7800;DHT22;3944;47.984;7.960;2022-07-01T13:24:33;19.30;99.90
7800;DHT22;3944;47.984;7.960;2022-07-01T13:27:00;19.30;99.90
7800;DHT22;3944;47.984;7.960;2022-07-01T13:29:27;19.20;99.90
7800;DHT22;3944;47.984;7.960;2022-07-01T13:31:54;19.20;99.90
7800;DHT22;3944;47.984;7.960;2022-07-01T13:34:23;19.20;99.90
7800;DHT22;3944;47.984;7.960;2022-07-01T13:36:50;19.10;99.90
7800;DHT22;3944;47.984;7.960;2022-07-01T13:39:18;19.00;99.90
7800;DHT22;3944;47.984;7.960;2022-07-01T13:41:45;18.90;99.90
7800;DHT22;3944;47.984;7.960;2022-07-01T13:44:12;18.90;99.90
7800;DHT22;3944;47.984;7.960;2022-07-01T13:46:40;18.90;99.90
7800;DHT22;3944;47.984;7.960;2022-07-01T13:49:07;19.00;99.90
7800;DHT22;3944;47.984;7.960;2022-07-01T13:51:34;19.00;99.90
7800;DHT22;3944;47.984;7.960;2022-07-01T13:54:01;19.00;99.90
7800;DHT22;3944;47.984;7.960;2022-07-01T13:56:30;19.10;99.90
7800;DHT22;3944;47.984;7.960;2022-07-01T13:58:57;19.10;99.90
7800;DHT22;3944;47.984;7.960;2022-07-01T14:01:24;19.20;99.90
7800;DHT22;3944;47.984;7.960;2022-07-01T14:03:51;19.10;99.90
7800;DHT22;3944;47.984;7.960;2022-07-01T14:06:19;19.20;99.90
7800;DHT22;3944;47.984;7.960;2022-07-01T14:08:46;19.10;99.90
7800;DHT22;3944;47.984;7.960;2022-07-01T14:11:13;19.20;99.90
7800;DHT22;3944;47.984;7.960;2022-07-01T14:13:42;19.20;99.90
7800;DHT22;3944;47.984;7.960;2022-07-01T14:16:10;19.30;99.90
7800;DHT22;3944;47.984;7.960;2022-07-01T14:18:37;19.20;99.90
7800;DHT22;3944;47.984;7.960;2022-07-01T14:21:04;19.10;99.90
7800;DHT22;3944;47.984;7.960;2022-07-01T14:23:31;19.00;97.40
7800;DHT22;3944;47.984;7.960;2022-07-01T14:25:59;18.90;99.50
7800;DHT22;3944;47.984;7.960;2022-07-01T14:28:27;19.00;99.90
7800;DHT22;3944;47.984;7.960;2022-07-01T14:30:55;19.00;99.90
7800;DHT22;3944;47.984;7.960;2022-07-01T14:33:22;19.00;98.10
7800;DHT22;3944;47.984;7.960;2022-07-01T14:35:49;19.10;99.90
7800;DHT22;3944;47.984;7.960;2022-07-01T14:38:17;19.10;99.90
7800;DHT22;3944;47.984;7.960;2022-07-01T14:40:44;19.00;99.90
7800;DHT22;3944;47.984;7.960;2022-07-01T14:43:11;19.00;99.80
7800;DHT22;3944;47.984;7.960;2022-07-01T14:45:38;18.90;98.20
7800;DHT22;3944;47.984;7.960;2022-07-01T14:48:07;18.90;99.90
7800;DHT22;3944;47.984;7.960;2022-07-01T14:50:35;18.90;99.90
7800;DHT22;3944;47.984;7.960;2022-07-01T14:53:02;18.90;99.90
7800;DHT22;3944;47.984;7.960;2022-07-01T14:55:30;19.10;99.90
7800;DHT22;3944;47.984;7.960;2022-07-01T14:57:57;19.10;99.20
7800;DHT22;3944;47.984;7.960;2022-07-01T15:00:24;19.10;99.80
7800;DHT22;3944;47.984;7.960;2022-07-01T15:02:52;19.10;99.90
7800;DHT22;3944;47.984;7.960;2022-07-01T15:05:22;19.10;98.80
7800;DHT22;3944;47.984;7.960;2022-07-01T15:07:50;19.20;97.20
7800;DHT22;3944;47.984;7.960;2022-07-01T15:10:17;19.50;95.10
7800;DHT22;3944;47.984;7.960;2022-07-01T15:12:44;19.40;97.70
7800;DHT22;3944;47.984;7.960;2022-07-01T15:15:11;19.50;98.30
7800;DHT22;3944;47.984;7.960;2022-07-01T15:17:43;19.60;97.10
7800;DHT22;3944;47.984;7.960;2022-07-01T15:20:12;19.60;97.20
7800;DHT22;3944;47.984;7.960;2022-07-01T15:22:40;19.60;96.20
7800;DHT22;3944;47.984;7.960;2022-07-01T15:25:08;19.70;95.60
7800;DHT22;3944;47.984;7.960;2022-07-01T15:27:36;19.70;95.10
7800;DHT22;3944;47.984;7.960;2022-07-01T15:30:04;19.80;96.00
7800;DHT22;3944;47.984;7.960;2022-07-01T15:32:32;19.80;97.70
7800;DHT22;3944;47.984;7.960;2022-07-01T15:34:59;19.90;94.20
7800;DHT22;3944;47.984;7.960;2022-07-01T15:37:27;19.80;94.90
7800;DHT22;3944;47.984;7.960;2022-07-01T15:39:56;19.80;94.40
7800;DHT22;3944;47.984;7.960;2022-07-01T15:42:23;19.80;94.70
7800;DHT22;3944;47.984;7.960;2022-07-01T15:44:50;19.80;93.50
7800;DHT22;3944;47.984;7.960;2022-07-01T15:47:17;19.80;95.00
7800;DHT22;3944;47.984;7.960;2022-07-01T15:50:01;19.90;94.30
7800;DHT22;3944;47.984;7.960;2022-07-01T15:52:28;20.00;94.10
7800;DHT22;3944;47.984;7.960;2022-07-01T15:54:57;19.90;94.20
7800;DHT22;3944;47.984;7.960;2022-07-01T15:57:24;19.70;94.50
7800;DHT22;3944;47.984;7.960;2022-07-01T15:59:51;19.70;92.80
7800;DHT22;3944;47.984;7.960;2022-07-01T16:02:20;19.90;93.10
7800;DHT22;3944;47.984;7.960;2022-07-01T16:04:47;20.00;94.30
7800;DHT22;3944;47.984;7.960;2022-07-01T16:07:20;20.10;91.90
7800;DHT22;3944;47.984;7.960;2022-07-01T16:09:52;20.20;92.50
7800;DHT22;3944;47.984;7.960;2022-07-01T16:12:26;20.10;90.40
7800;DHT22;3944;47.984;7.960;2022-07-01T16:14:55;20.10;89.70
7800;DHT22;3944;47.984;7.960;2022-07-01T16:17:24;20.20;92.90